Archival Weather

General Ignacio P Garcia Intl

General Ignacio P Garcia Intl, Mexico (MMHO)

Report from: Wednesday, December 6, 2023 5:40 PM CST
Current time: Friday, February 23, 2024 1:50 PM CST

Current weather – Weather history – Daily summaries
Weather forecast

Temperature30.0°C (86.0°F)
Heat index28.1°C (82.7°F)
Dew point-6.0°C (21.2°F)
Winds 6 kts (3.1 m/s, 6.9 mph) Southwest (220°)
Visibility10 mi. (16.1 km)
Clouds Sky clear
Altimeter29.99 in.Hg (1016 mB)
Relative humidity9 %
Density altitude1,718 ft. (524 m)
Sea-level pressure101.5 kPa (1015 mB, 29.98 in.Hg)
Remarks Pressure falling
Flight conditions Visual Meteorological Conditions
Raw dataMMHO 062340Z 22006KT 10SM SKC 30/M06 A2999 RMK SLP154 57007 967 ISOL CI HZY
An error has occurred. This application may no longer respond until reloaded. Reload 🗙